Washington, DC (20002)

3:11 AM EDT on August 30, 2015 (GMT -0400)
Eckington Pl, NE | | Change Station
CLOSE
Current Station
Personal Weather Station
Location: Washington, DC
Elevation: 90 ft
Nearby Weather Stations

Elev 90 ft 38.91 °N, 77.01 °W | Updated 2 minutes ago

Partly Cloudy
Partly Cloudy
73.0 °F
Feels Like 74 °F
N
3.0
Wind Variable Wind from SSE
Gusts 9.0 mph

Today
High -- | Low -- °F
--% Chance of Precip.
Yesterday
High -- | Low -- °F
Precip. -- in
6:34 AM 7:41 PM
Full, 100% visible
Pressure 30.10 in
Visibility 10.0 miles
Clouds Mostly Cloudy 25000 ft
Heat Index 74 °F
Dew Point 65 °F
Humidity 76%
Rainfall Not available.
Snow Depth Not available.
UV 0 out of 12
Pollen 10.30 out of 12
Air Quality Not available.
Flu Activity Not available.
METAR KDCA 300652Z 19008KT 10SM BKN250 22/18 A3010 RMK AO2 SLP193 T02170178
Pressure 30.10 in
Visibility 10.0 miles
Clouds Mostly Cloudy 25000 ft
Heat Index 74 °F
Dew Point 65 °F
Humidity 76%
Rainfall Not available.
Snow Depth Not available.
UV 0 out of 12
Pollen 10.30 out of 12
Air Quality Not available.
Flu Activity Not available.
METAR KDCA 300652Z 19008KT 10SM BKN250 22/18 A3010 RMK AO2 SLP193 T02170178

10-Day Weather Forecast

×

Almanac

Astronomy

Aug. 30, 2015 Rise Set
Actual Time
Civil Twilight
Nautical Twilight
Astronomical Twilight
Moon
Length of Visible Light
Length of Day
Tomorrow will be .
, % of the Moon is Illuminated

Today's Extremes

State Highs State Lows

Community

WunderPhotos

Upload Photos

1,850,904 photos uploaded!

WunderBlogs® & News

Nearby

Air Quality

  Air Quality AQ Index Pollutant
Not available.

Snow Depth

Station Depth Elevation

Earthquake Activity

City Distance Mag. Time & Date
Minimum magnitude displayed is 2.5.

Coastal Water Temperatures

Place Temperature

Stations

Nearby Weather Stations

Station Location Temp. Windchill Dew Point Humidity Wind Precip. Elev Updated Type